This is the latest recevied weather packets stored in our database for station/object IU0KRR-10. If no packets are shown the sender has not sent any weather packets the latest 10 day(s).
| Time | Temp. | Humidity | Pressure | Rain* | Wind** | Luminosity | Snow |
|---|---|---|---|---|---|---|---|
| 1787770375 | 21.67° C | 67% | 877.6 hPa | - | - | - | - |
| 1787769456 | 21.67° C | 68% | 877.8 hPa | - | - | - | - |
| 1787768720 | 22.22° C | 66% | 877.9 hPa | - | - | - | - |
| 1787767619 | 22.22° C | 64% | 878 hPa | - | - | - | - |
| 1787766789 | 22.78° C | 61% | 877.9 hPa | - | - | - | - |
| 1787765779 | 23.33° C | 56% | 877.7 hPa | - | - | - | - |
| 1787764844 | 24.44° C | 51% | 877.7 hPa | - | - | - | - |
| 1787763936 | 25° C | 49% | 877.7 hPa | - | - | - | - |
| 1787763026 | 25.56° C | 48% | 877.7 hPa | - | - | - | - |
| 1787762125 | 25.56° C | 46% | 877.7 hPa | - | - | - | - |
| 1787761274 | 26.11° C | 45% | 877.7 hPa | - | - | - | - |
| 1787761224 | 26.11° C | 45% | 877.7 hPa | - | - | - | - |
| 1787760323 | 26.11° C | 44% | 877.6 hPa | - | - | - | - |
| 1787759699 | 26.11° C | 43% | 877.7 hPa | - | - | - | - |
| 1787758601 | 26.67° C | 41% | 877.7 hPa | - | - | - | - |
| 1787757535 | 26.67° C | 39% | 877.5 hPa | - | - | - | - |
| 1787756630 | 27.22° C | 39% | 877.6 hPa | - | - | - | - |
| 1787756192 | 27.22° C | 39% | 877.5 hPa | - | - | - | - |
| 1787754817 | 27.78° C | 40% | 877.5 hPa | - | - | - | - |
| 1787753898 | 27.78° C | 40% | 877.5 hPa | - | - | - | - |
| 1787753162 | 27.22° C | 42% | 877.5 hPa | - | - | - | - |
| 1787752152 | 27.22° C | 41% | 877.6 hPa | - | - | - | - |
| 1787751507 | 27.22° C | 42% | 877.6 hPa | - | - | - | - |
| 1787750675 | 27.22° C | 40% | 877.8 hPa | - | - | - | - |
| 1787748559 | 26.67° C | 45% | 878 hPa | - | - | - | - |
* Rain since midnight (hover to see other rain measurements)
** Current wind speed in m/s (hover to see current wind gust speed)